Time;durP1;ratioP1;P1;durP2;ratioP2;P2;SDS_P1;SDS_P2;PMS_P1;PMS_P2;Temp;Humidity;BMP_temperature;BMP_pressure;BME280_temperature;BME280_humidity;BME280_pressure;Samples;Min_cycle;Max_cycle;Signal;HPM_P1;HPM_P2
2021/04/24 00:02:43;;;;;;;42.30;20.60;;;;;;;7.48;57.25;99714.37;262983;1104;115020;-68
2021/04/24 00:07:46;;;;;;;38.03;19.90;;;;;;;7.44;57.68;99706.58;263115;1099;114817;-67
2021/04/24 00:12:54;;;;;;;43.58;20.83;;;;;;;7.43;57.51;99694.27;263012;1104;114846;-67
2021/04/24 00:17:57;;;;;;;46.10;21.80;;;;;;;7.43;57.28;99699.56;262726;1100;115010;-67
2021/04/24 00:23:01;;;;;;;47.20;22.28;;;;;;;7.40;57.50;99692.59;262671;1104;115305;-67
2021/04/24 00:28:10;;;;;;;47.30;22.18;;;;;;;7.38;57.49;99701.55;262835;1100;211195;-67
2021/04/24 00:33:13;;;;;;;45.98;22.43;;;;;;;7.32;57.63;99690.25;263058;1102;115452;-67
2021/04/24 00:38:16;;;;;;;50.30;23.08;;;;;;;7.35;57.43;99687.48;262502;1102;115879;-66
2021/04/24 00:43:20;;;;;;;50.03;24.28;;;;;;;7.35;56.99;99690.14;262526;1105;114962;-66
2021/04/24 00:48:24;;;;;;;48.48;24.58;;;;;;;7.32;56.71;99692.90;262590;1100;115710;-66
2021/04/24 00:53:27;;;;;;;54.63;25.20;;;;;;;7.30;57.28;99701.81;262554;1105;115314;-64
2021/04/24 00:58:38;;;;;;;54.63;25.85;;;;;;;7.23;56.60;99695.89;262761;1102;114924;-64
2021/04/24 01:03:47;;;;;;;59.75;26.98;;;;;;;7.16;56.48;99699.69;263363;1100;115167;-67
2021/04/24 01:09:01;;;;;;;55.10;26.23;;;;;;;7.15;57.04;99697.97;262743;1100;115200;-66
2021/04/24 01:14:08;;;;;;;60.05;28.35;;;;;;;7.13;56.56;99694.50;262544;1102;115342;-67
2021/04/24 01:19:23;;;;;;;61.40;28.13;;;;;;;7.17;56.47;99693.50;262798;1100;115154;-68
2021/04/24 01:24:27;;;;;;;53.00;26.90;;;;;;;7.16;57.16;99688.24;262746;1104;115067;-69
2021/04/24 01:29:42;;;;;;;59.95;29.68;;;;;;;7.11;56.36;99686.64;262907;1102;114948;-69
2021/04/24 01:35:03;;;;;;;58.63;28.03;;;;;;;7.10;57.18;99678.77;262573;1105;114903;-68
2021/04/24 01:40:16;;;;;;;56.63;27.25;;;;;;;7.06;56.79;99685.07;262854;1101;115160;-68
2021/04/24 01:45:21;;;;;;;59.25;28.20;;;;;;;7.01;57.37;99679.96;262972;1104;115215;-68
2021/04/24 01:50:33;;;;;;;55.38;26.83;;;;;;;6.99;56.51;99675.64;263155;1100;115036;-72
2021/04/24 01:55:42;;;;;;;55.65;26.08;;;;;;;6.97;56.57;99672.20;262895;1101;114938;-70
2021/04/24 02:00:53;;;;;;;55.30;26.60;;;;;;;6.92;57.33;99666.20;263218;1100;114795;-68
2021/04/24 02:06:15;;;;;;;57.83;28.18;;;;;;;6.90;57.00;99662.77;262764;1104;115054;-69
2021/04/24 02:11:26;;;;;;;55.05;26.25;;;;;;;6.84;56.99;99661.20;262524;1100;114663;-69
2021/04/24 02:16:42;;;;;;;52.95;25.03;;;;;;;6.84;57.28;99655.91;262596;1104;115034;-71
2021/04/24 02:21:48;;;;;;;50.55;25.70;;;;;;;6.79;57.71;99652.56;262450;1100;114969;-70
2021/04/24 02:26:56;;;;;;;53.48;26.05;;;;;;;6.75;57.71;99646.52;262980;1104;115081;-71
2021/04/24 02:32:24;;;;;;;51.03;23.70;;;;;;;6.69;57.87;99636.19;263013;1100;118073;-72
2021/04/24 02:37:32;;;;;;;49.85;23.83;;;;;;;6.69;57.45;99622.97;262791;1105;114905;-68
2021/04/24 02:42:49;;;;;;;53.43;24.33;;;;;;;6.70;57.57;99614.10;262946;1100;114638;-69
2021/04/24 02:47:54;;;;;;;46.25;23.08;;;;;;;6.72;57.85;99609.59;262372;1105;115172;-68
2021/04/24 02:53:00;;;;;;;44.58;22.43;;;;;;;6.77;57.48;99633.25;263140;1102;114897;-69
2021/04/24 02:58:10;;;;;;;47.60;22.03;;;;;;;6.74;57.54;99643.95;263226;1104;114881;-71
2021/04/24 03:03:14;;;;;;;53.00;24.00;;;;;;;6.68;57.78;99666.18;262496;1100;115123;-66
2021/04/24 03:08:21;;;;;;;50.58;23.70;;;;;;;6.65;57.16;99618.69;262752;1101;115111;-67
2021/04/24 03:13:27;;;;;;;48.28;25.25;;;;;;;6.56;57.74;99641.05;262659;1098;114990;-66
2021/04/24 03:18:47;;;;;;;60.33;25.05;;;;;;;6.56;57.51;99630.47;262730;1101;115049;-68
2021/04/24 03:23:51;;;;;;;51.68;24.78;;;;;;;6.56;57.39;99650.77;262444;1105;118327;-67
2021/04/24 03:28:55;;;;;;;54.80;26.20;;;;;;;6.54;57.76;99650.81;262492;1100;114719;-66
2021/04/24 03:34:06;;;;;;;51.33;26.53;;;;;;;6.54;57.24;99663.17;262448;1105;115005;-66
2021/04/24 03:39:12;;;;;;;57.48;26.15;;;;;;;6.55;57.64;99664.89;262489;1102;115552;-67
2021/04/24 03:44:15;;;;;;;45.88;22.90;;;;;;;6.53;57.39;99666.74;262466;1103;115328;-70
2021/04/24 03:49:19;;;;;;;48.05;23.95;;;;;;;6.56;57.49;99658.70;262442;1100;115498;-66
2021/04/24 03:54:26;;;;;;;42.45;21.45;;;;;;;6.57;57.45;99678.93;262438;1105;114711;-68
2021/04/24 03:59:41;;;;;;;43.10;21.50;;;;;;;6.56;57.20;99685.15;262442;1100;114999;-68
2021/04/24 04:04:52;;;;;;;44.23;21.77;;;;;;;6.62;56.72;99677.86;262522;1106;115340;-68
2021/04/24 04:09:55;;;;;;;47.90;22.68;;;;;;;6.64;56.54;99683.94;262456;1101;115266;-70
2021/04/24 04:15:07;;;;;;;37.50;19.83;;;;;;;6.64;56.65;99689.23;262491;1105;116707;-67
2021/04/24 04:20:17;;;;;;;43.13;21.75;;;;;;;6.58;57.14;99694.73;262487;1100;115109;-67
2021/04/24 04:25:25;;;;;;;43.08;20.93;;;;;;;6.58;56.88;99685.94;263025;1104;115058;-67
2021/04/24 04:30:31;;;;;;;42.07;21.10;;;;;;;6.60;56.91;99700.84;263107;1101;114879;-68
2021/04/24 04:35:37;;;;;;;44.65;21.10;;;;;;;6.65;57.07;99703.31;262468;1104;115234;-69
2021/04/24 04:40:45;;;;;;;45.73;21.70;;;;;;;6.65;56.68;99708.59;262568;1099;115107;-71
2021/04/24 04:45:57;;;;;;;38.45;19.55;;;;;;;6.64;56.32;99705.09;262446;1102;114929;-69
2021/04/24 04:51:05;;;;;;;43.05;20.95;;;;;;;6.66;57.21;99709.45;262513;1100;115278;-69
2021/04/24 04:56:08;;;;;;;41.23;20.45;;;;;;;6.70;56.58;99696.09;263013;1104;114768;-67
2021/04/24 05:01:12;;;;;;;39.33;19.75;;;;;;;6.80;56.96;99701.92;262812;1099;114889;-67
2021/04/24 05:06:14;;;;;;;43.63;19.78;;;;;;;6.87;57.20;99714.01;262873;1104;115497;-66
2021/04/24 05:11:17;;;;;;;40.28;18.75;;;;;;;6.95;56.52;99713.72;263141;1100;115293;-67
2021/04/24 05:16:23;;;;;;;40.35;18.38;;;;;;;7.03;57.11;99709.00;262717;1104;115129;-67
2021/04/24 05:21:27;;;;;;;43.67;18.60;;;;;;;7.14;57.13;99712.13;262523;1100;115283;-67
2021/04/24 05:26:38;;;;;;;32.65;16.58;;;;;;;7.29;56.85;99703.60;262798;1104;115202;-68
2021/04/24 05:31:42;;;;;;;39.08;17.28;;;;;;;7.44;56.78;99702.17;262828;1099;115626;-68
2021/04/24 05:36:57;;;;;;;34.75;16.13;;;;;;;7.56;56.07;99711.41;263193;1104;114950;-67
2021/04/24 05:42:00;;;;;;;37.10;14.65;;;;;;;7.64;55.40;99713.75;263005;1100;115010;-68
2021/04/24 05:47:02;;;;;;;27.37;12.43;;;;;;;7.74;55.17;99721.28;262975;1104;115028;-67
2021/04/24 05:52:06;;;;;;;33.33;12.88;;;;;;;7.83;55.33;99720.92;262845;1100;114947;-70
2021/04/24 05:57:13;;;;;;;23.38;11.80;;;;;;;7.88;55.39;99725.17;262615;1105;115590;-68
2021/04/24 06:02:16;;;;;;;24.65;11.08;;;;;;;7.87;55.13;99728.75;262487;1100;115711;-68
2021/04/24 06:07:20;;;;;;;20.60;9.78;;;;;;;7.96;54.52;99736.34;262616;1101;115023;-66
2021/04/24 06:12:29;;;;;;;23.38;9.83;;;;;;;8.04;54.52;99726.28;262682;1100;114970;-70
2021/04/24 06:17:41;;;;;;;26.18;10.58;;;;;;;8.15;54.01;99736.45;263151;1104;114901;-69
2021/04/24 06:22:44;;;;;;;23.08;10.03;;;;;;;8.24;53.82;99733.42;262814;1101;115020;-68
2021/04/24 06:27:49;;;;;;;;;;;;;;;8.29;54.03;99731.46;262534;1106;114941;-68
2021/04/24 06:33:08;;;;;;;;;;;;;;;;;;;;;
2021/04/24 06:38:11;;;;;;;;;;;;;;;8.57;52.93;99723.23;262995;1104;114671;-68
2021/04/24 06:43:17;;;;;;;14.60;7.73;;;;;;;8.70;52.44;99726.22;263307;1100;100955;-70
2021/04/24 06:48:22;;;;;;;;;;;;;;;8.81;52.72;99728.41;262701;1105;114727;-71
2021/04/24 06:53:29;;;;;;;18.03;7.70;;;;;;;8.94;52.07;99721.63;262626;1102;100882;-69
2021/04/24 06:58:36;;;;;;;16.58;7.63;;;;;;;8.98;51.58;99721.41;262570;1105;114946;-69
2021/04/24 07:03:45;;;;;;;17.65;8.15;;;;;;;9.06;51.37;99720.20;262852;1099;115312;-72
2021/04/24 07:08:50;;;;;;;17.90;7.33;;;;;;;9.13;51.26;99727.82;263109;1100;114870;-71
2021/04/24 07:13:57;;;;;;;17.73;7.78;;;;;;;9.22;50.79;99713.28;262497;1101;114842;-65
2021/04/24 07:19:00;;;;;;;12.63;6.15;;;;;;;9.34;50.41;99714.49;262502;1105;115200;-68
2021/04/24 07:24:04;;;;;;;12.85;5.78;;;;;;;9.40;50.18;99714.22;262473;1100;114800;-68
2021/04/24 07:29:07;;;;;;;11.38;5.30;;;;;;;9.48;49.29;99706.77;262698;1104;114634;-67
2021/04/24 07:34:13;;;;;;;12.35;4.30;;;;;;;9.50;49.00;99707.55;262413;1100;114974;-72
2021/04/24 07:39:20;;;;;;;9.58;4.93;;;;;;;9.55;49.30;99713.52;263009;1104;115096;-71
2021/04/24 07:44:43;;;;;;;10.90;4.40;;;;;;;9.63;48.78;99706.03;263080;1100;114734;-67
2021/04/24 07:49:49;;;;;;;14.10;5.40;;;;;;;9.82;48.73;99713.14;262618;1101;114883;-66
2021/04/24 07:54:54;;;;;;;13.78;5.00;;;;;;;9.97;48.32;99712.39;263014;1100;114769;-65
2021/04/24 08:00:14;;;;;;;12.05;5.10;;;;;;;10.08;48.43;99701.22;262926;1105;115242;-68
2021/04/24 08:05:27;;;;;;;15.53;6.90;;;;;;;10.14;48.28;99699.13;262816;1101;115270;-66
2021/04/24 08:10:36;;;;;;;14.15;6.15;;;;;;;10.22;48.11;99700.53;262592;1102;115242;-67
2021/04/24 08:15:41;;;;;;;13.95;6.38;;;;;;;10.35;47.81;99688.38;262729;1099;115449;-70
2021/04/24 08:20:44;;;;;;;15.55;6.23;;;;;;;10.40;48.01;99700.52;263217;1104;115767;-66
2021/04/24 08:25:47;;;;;;;13.93;6.85;;;;;;;10.39;48.13;99692.59;262761;1100;115103;-66
2021/04/24 08:30:54;;;;;;;14.48;7.18;;;;;;;10.35;47.63;99688.38;262358;1105;115005;-66
2021/04/24 08:35:57;;;;;;;20.83;8.05;;;;;;;10.37;47.79;99689.17;262563;1100;115271;-70
2021/04/24 08:41:07;;;;;;;18.73;8.30;;;;;;;10.39;47.54;99698.80;263010;1104;115041;-69
2021/04/24 08:46:15;;;;;;;13.90;7.27;;;;;;;10.92;48.95;99694.29;262862;1100;115378;-72
2021/04/24 08:51:28;;;;;;;16.43;7.85;;;;;;;11.16;48.55;99693.92;262665;1102;115084;-78
2021/04/24 08:56:51;;;;;;;13.73;6.60;;;;;;;11.25;47.85;99680.97;262501;1100;115046;-76
2021/04/24 09:02:20;;;;;;;17.43;7.05;;;;;;;11.34;47.59;99680.48;262621;1104;115071;-76
2021/04/24 09:07:32;;;;;;;17.18;8.05;;;;;;;11.50;47.74;99679.61;262598;1100;115444;-78
2021/04/24 09:13:06;;;;;;;18.00;9.50;;;;;;;11.50;47.52;99676.95;262735;1100;115325;-76
2021/04/24 09:18:16;;;;;;;16.75;8.53;;;;;;;11.75;46.63;99663.98;263111;1089;114921;-75
2021/04/24 09:23:28;;;;;;;14.73;7.90;;;;;;;11.95;46.42;99667.32;262707;1104;115137;-69
2021/04/24 09:28:35;;;;;;;11.35;6.20;;;;;;;11.96;46.63;99666.39;262563;1099;115380;-72
2021/04/24 09:33:44;;;;;;;14.00;6.60;;;;;;;11.85;45.78;99666.98;263479;1104;115085;-77
2021/04/24 09:38:52;;;;;;;12.00;6.38;;;;;;;11.91;45.95;99657.78;263140;1099;115330;-72
2021/04/24 09:44:08;;;;;;;14.93;6.23;;;;;;;12.12;45.27;99653.00;263270;1104;115454;-76
2021/04/24 09:49:29;;;;;;;13.08;6.25;;;;;;;12.12;45.22;99650.34;263095;1099;115715;-73
2021/04/24 09:54:46;;;;;;;11.65;5.78;;;;;;;12.17;44.94;99653.61;263172;1104;114921;-77
2021/04/24 10:00:05;;;;;;;14.73;6.03;;;;;;;12.18;45.26;99657.98;263476;1100;115538;-77
2021/04/24 10:05:23;;;;;;;12.55;6.03;;;;;;;12.19;44.53;99641.88;263180;1104;114935;-72
2021/04/24 10:10:32;;;;;;;14.30;5.98;;;;;;;12.30;44.32;99636.78;262858;1100;114724;-70
2021/04/24 10:15:46;;;;;;;17.20;7.08;;;;;;;12.51;44.72;99629.29;263098;1104;114893;-71
2021/04/24 10:20:53;;;;;;;13.88;6.33;;;;;;;12.65;44.41;99619.58;263120;1099;115001;-70
2021/04/24 10:26:00;;;;;;;9.60;5.50;;;;;;;12.79;44.19;99622.26;263239;1104;114707;-69
2021/04/24 10:31:09;;;;;;;10.98;5.25;;;;;;;13.03;44.74;99618.05;263678;1099;114907;-69
2021/04/24 10:36:16;;;;;;;10.38;3.93;;;;;;;12.94;42.34;99615.98;263501;1100;114839;-70
2021/04/24 10:41:35;;;;;;;9.48;4.05;;;;;;;12.76;42.12;99603.75;262536;1100;115329;-70
2021/04/24 10:46:48;;;;;;;8.95;4.05;;;;;;;12.67;42.01;99602.52;263179;1104;114687;-77
2021/04/24 10:52:17;;;;;;;9.08;4.05;;;;;;;12.62;42.39;99596.59;263448;1099;114729;-77
2021/04/24 10:57:43;;;;;;;10.70;4.55;;;;;;;12.62;41.60;99593.92;263439;1104;114955;-77
2021/04/24 11:02:55;;;;;;;10.00;4.20;;;;;;;12.59;41.83;99590.58;263483;1098;114996;-78
2021/04/24 11:08:10;;;;;;;13.35;3.98;;;;;;;12.50;42.18;99576.86;263530;1103;114803;-70
2021/04/24 11:13:19;;;;;;;11.00;4.40;;;;;;;12.39;41.79;99584.64;263257;1099;115075;-71
2021/04/24 11:18:26;;;;;;;11.25;5.05;;;;;;;12.35;41.62;99591.13;263498;1104;115279;-78
2021/04/24 11:23:33;;;;;;;;;;;;;;;12.43;42.27;99582.64;263479;1099;114942;-71
2021/04/24 11:29:03;;;;;;;13.68;4.85;;;;;;;12.44;42.39;99589.72;263518;1104;100990;-76
2021/04/24 11:34:38;;;;;;;9.20;4.35;;;;;;;12.42;41.38;99583.60;263369;1098;115104;-70
2021/04/24 11:40:08;;;;;;;12.40;4.70;;;;;;;12.38;40.87;99574.92;263450;1104;114788;-72
2021/04/24 11:45:15;;;;;;;10.93;4.28;;;;;;;12.48;41.15;99577.89;263406;1099;115191;-75
2021/04/24 11:50:19;;;;;;;8.98;4.50;;;;;;;12.70;41.31;99567.62;263446;1104;115248;-79
2021/04/24 11:55:25;;;;;;;10.23;5.28;;;;;;;12.75;41.35;99565.50;263479;1099;115087;-73
2021/04/24 12:00:31;;;;;;;12.23;5.40;;;;;;;12.84;41.27;99573.88;263182;1101;115257;-82
2021/04/24 12:05:45;;;;;;;13.08;5.78;;;;;;;13.24;41.67;99557.05;263046;1104;115793;-77
2021/04/24 12:10:55;;;;;;;14.53;5.25;;;;;;;13.70;41.70;99551.38;263169;1104;114889;-77
2021/04/24 12:16:05;;;;;;;10.25;4.93;;;;;;;13.72;40.88;99549.47;263336;1099;115082;-84
2021/04/24 12:21:24;;;;;;;9.55;4.08;;;;;;;13.69;40.45;99540.80;263208;1104;114837;-78
2021/04/24 12:26:34;;;;;;;8.08;4.10;;;;;;;13.87;40.22;99547.57;263499;1099;114815;-78
2021/04/24 12:31:39;;;;;;;12.38;4.78;;;;;;;13.98;39.93;99551.34;263350;1102;115397;-79
2021/04/24 12:36:47;;;;;;;9.48;5.28;;;;;;;14.01;39.57;99537.75;263202;1100;114858;-78
2021/04/24 12:41:54;;;;;;;12.65;4.78;;;;;;;13.96;39.73;99530.91;263086;1104;115057;-75
2021/04/24 12:47:06;;;;;;;11.75;4.80;;;;;;;13.87;39.48;99523.49;263424;1100;114748;-74
2021/04/24 12:52:14;;;;;;;8.25;4.13;;;;;;;13.79;39.33;99525.84;263427;1104;114772;-75
2021/04/24 12:57:21;;;;;;;6.80;3.25;;;;;;;13.73;38.81;99518.22;263280;1100;114981;-74
2021/04/24 13:02:35;;;;;;;5.70;2.70;;;;;;;13.72;38.87;99521.84;263474;1101;114812;-84
2021/04/24 13:07:46;;;;;;;9.27;3.53;;;;;;;13.65;38.50;99507.16;263428;1099;114728;-73
2021/04/24 13:12:59;;;;;;;7.75;3.43;;;;;;;13.60;38.29;99504.81;263117;1104;114961;-81
2021/04/24 13:18:23;;;;;;;11.15;3.53;;;;;;;13.71;37.61;99496.91;263434;1099;114639;-77
2021/04/24 13:23:32;;;;;;;7.88;3.15;;;;;;;14.01;38.09;99500.29;263267;1104;115254;-83
2021/04/24 13:28:40;;;;;;;7.50;3.20;;;;;;;14.03;37.56;99490.31;263490;1099;114766;-84
2021/04/24 13:33:46;;;;;;;7.98;3.10;;;;;;;13.88;37.06;99485.06;263471;1104;115182;-76
2021/04/24 13:39:01;;;;;;;8.78;4.05;;;;;;;13.79;37.43;99484.83;263421;1099;115097;-85
2021/04/24 13:44:38;;;;;;;8.28;3.63;;;;;;;13.68;37.14;99482.89;263528;1104;114607;-83
2021/04/24 13:49:45;;;;;;;6.78;3.45;;;;;;;13.75;36.63;99473.48;263474;1098;114847;-84
2021/04/24 13:54:50;;;;;;;6.88;3.73;;;;;;;13.74;37.19;99471.78;263510;1104;115479;-83
2021/04/24 13:59:58;;;;;;;7.95;3.83;;;;;;;13.67;36.75;99478.51;263115;1104;114889;-84
2021/04/24 14:05:05;;;;;;;7.13;3.33;;;;;;;13.60;36.47;99474.54;263336;1104;115754;-84
2021/04/24 14:10:13;;;;;;;5.83;3.33;;;;;;;13.55;37.05;99474.83;263474;1099;114724;-82
2021/04/24 14:15:21;;;;;;;9.10;3.38;;;;;;;13.52;37.35;99474.18;263481;1099;114619;-74
2021/04/24 14:20:31;;;;;;;9.18;3.88;;;;;;;13.43;36.21;99475.67;263327;1104;114927;-82
2021/04/24 14:25:40;;;;;;;10.80;3.93;;;;;;;13.40;36.58;99468.70;263477;1099;115487;-81
2021/04/24 14:47:26;;;;;;;;;;;;;;;;;;;;;
2021/04/24 15:09:03;;;;;;;9.73;3.43;;;;;;;13.23;37.33;99439.53;263362;1093;114644;-68
2021/04/24 15:14:27;;;;;;;8.58;3.38;;;;;;;13.23;37.42;99444.88;263443;1100;114207;-68
2021/04/24 15:19:36;;;;;;;10.83;3.63;;;;;;;13.24;37.53;99442.13;263441;1099;114711;-67
2021/04/24 15:25:01;;;;;;;9.50;3.80;;;;;;;13.23;37.70;99442.20;262792;1104;114704;-68
2021/04/24 15:30:07;;;;;;;8.50;4.45;;;;;;;13.21;37.11;99436.09;261923;1104;114369;-67
2021/04/24 15:35:40;;;;;;;12.28;4.68;;;;;;;13.18;38.10;99441.67;262477;1102;114369;-67
2021/04/24 15:41:05;;;;;;;;;;;;;;;;;;;;;
2021/04/24 15:46:33;;;;;;;11.75;4.78;;;;;;;13.14;38.37;99432.97;262391;1107;114842;-67
2021/04/24 15:51:54;;;;;;;10.63;4.33;;;;;;;13.13;37.83;99428.59;262244;1101;116013;-68
2021/04/24 15:57:04;;;;;;;9.70;4.33;;;;;;;13.08;38.56;99425.39;262748;1104;114564;-67
2021/04/24 16:02:42;;;;;;;;;;;;;;;;;;;;;
2021/04/24 16:08:21;;;;;;;;;;;;;;;;;;;;;
2021/04/24 16:13:42;;;;;;;11.80;5.35;;;;;;;13.02;38.51;99415.95;263262;1099;115012;-67
2021/04/24 16:18:49;;;;;;;11.55;5.53;;;;;;;13.04;38.95;99413.16;263488;1103;114356;-67
2021/04/24 16:24:00;;;;;;;18.18;5.85;;;;;;;13.04;38.48;99413.16;262753;1100;114407;-67
2021/04/24 16:29:24;;;;;;;;;;;;;;;;;;;;;
2021/04/24 16:34:54;;;;;;;12.65;5.88;;;;;;;13.07;39.18;99404.95;263011;1100;114905;-69
2021/04/24 16:40:17;;;;;;;;;;;;;;;;;;;;;
2021/04/24 16:45:33;;;;;;;11.00;5.23;;;;;;;13.01;38.87;99414.25;263291;1099;115042;-69
2021/04/24 16:51:10;;;;;;;14.83;5.50;;;;;;;12.95;38.87;99411.97;263474;1099;114847;-67
2021/04/24 16:57:08;;;;;;;;;;;;;;;;;;;;;
2021/04/24 17:02:19;;;;;;;12.28;5.73;;;;;;;12.83;40.22;99414.59;263322;1099;114817;-67
2021/04/24 17:07:45;;;;;;;;;;;;;;;;;;;;;
2021/04/24 17:13:10;;;;;;;13.83;5.80;;;;;;;12.71;39.70;99405.57;263281;1099;114730;-67
2021/04/24 17:18:45;;;;;;;;;;;;;;;12.68;39.74;99405.77;261792;1106;114811;-67
2021/04/24 17:24:26;;;;;;;13.35;5.78;;;;;;;12.67;40.37;99410.25;262544;1102;101747;-66
2021/04/24 17:29:48;;;;;;;12.68;6.30;;;;;;;12.62;40.30;99404.34;262096;1104;115122;-67
2021/04/24 17:34:55;;;;;;;17.03;6.90;;;;;;;12.59;40.16;99409.02;262388;1102;115043;-59
2021/04/24 17:39:58;;;;;;;21.77;6.48;;;;;;;12.56;40.94;99394.05;263492;1103;114475;-58
2021/04/24 17:45:03;;;;;;;19.93;7.38;;;;;;;12.54;40.34;99395.98;263495;1098;114780;-59
2021/04/24 17:50:07;;;;;;;12.88;6.60;;;;;;;12.51;40.87;99404.19;263555;1104;114365;-63
2021/04/24 17:55:12;;;;;;;17.45;7.25;;;;;;;12.46;40.59;99396.45;263507;1099;114926;-63
2021/04/24 18:00:20;;;;;;;18.28;7.18;;;;;;;12.42;40.93;99400.27;263570;1104;114702;-63
2021/04/24 18:05:23;;;;;;;19.45;7.33;;;;;;;12.40;41.46;99406.66;263558;1098;114391;-62
2021/04/24 18:10:27;;;;;;;14.53;7.95;;;;;;;12.37;41.38;99401.55;263547;1104;115216;-62
2021/04/24 18:15:29;;;;;;;17.03;7.55;;;;;;;12.34;42.07;99407.92;263470;1098;115502;-63
2021/04/24 18:20:35;;;;;;;21.37;7.40;;;;;;;12.31;42.11;99405.45;263446;1103;114552;-62
2021/04/24 18:25:39;;;;;;;19.73;7.68;;;;;;;12.28;42.20;99403.82;263503;1098;114658;-62
2021/04/24 18:30:42;;;;;;;18.85;9.63;;;;;;;12.22;42.82;99411.36;263496;1104;114615;-63
2021/04/24 18:35:45;;;;;;;22.45;10.78;;;;;;;12.17;42.79;99416.14;263545;1098;114416;-63
2021/04/24 18:40:48;;;;;;;19.93;9.70;;;;;;;12.11;42.82;99424.52;263499;1104;114768;-62
2021/04/24 18:45:52;;;;;;;26.98;10.58;;;;;;;12.05;42.97;99418.59;263529;1098;114777;-63
2021/04/24 18:50:54;;;;;;;17.38;10.15;;;;;;;11.99;43.08;99431.45;263541;1104;114548;-62
2021/04/24 18:55:58;;;;;;;22.70;10.08;;;;;;;11.92;42.49;99433.67;263481;1097;115355;-63
2021/04/24 19:01:01;;;;;;;22.80;10.00;;;;;;;11.89;43.07;99423.19;263494;1103;114636;-64
2021/04/24 19:06:04;;;;;;;24.10;10.53;;;;;;;11.82;43.09;99428.00;263399;1099;114836;-64
2021/04/24 19:11:09;;;;;;;17.93;9.78;;;;;;;11.77;42.95;99426.55;263471;1104;114585;-63
2021/04/24 19:16:12;;;;;;;16.78;10.40;;;;;;;11.71;43.17;99430.44;263540;1098;114516;-64
2021/04/24 19:21:15;;;;;;;20.65;9.93;;;;;;;11.65;43.26;99430.84;263395;1104;115968;-64
2021/04/24 19:26:18;;;;;;;21.77;10.55;;;;;;;11.60;43.27;99425.75;263371;1098;114936;-65
2021/04/24 19:31:24;;;;;;;19.93;10.28;;;;;;;11.55;43.36;99419.86;263433;1104;114864;-69
2021/04/24 19:36:28;;;;;;;24.48;11.65;;;;;;;11.50;43.22;99421.08;263367;1099;115088;-70
2021/04/24 19:41:32;;;;;;;25.83;12.45;;;;;;;11.46;43.56;99427.55;263482;1104;115141;-68
2021/04/24 19:46:37;;;;;;;25.75;12.60;;;;;;;11.42;43.28;99418.88;263340;1099;114711;-68
2021/04/24 19:51:41;;;;;;;24.73;12.03;;;;;;;11.40;43.35;99426.09;263456;1103;115136;-69
2021/04/24 19:56:44;;;;;;;24.48;12.65;;;;;;;11.34;43.97;99431.77;263464;1099;114962;-68
2021/04/24 20:01:51;;;;;;;25.83;12.40;;;;;;;11.28;44.05;99425.02;263468;1104;115028;-69
2021/04/24 20:06:58;;;;;;;28.43;14.78;;;;;;;11.23;44.09;99435.08;263409;1098;115195;-72
2021/04/24 20:12:05;;;;;;;27.43;13.78;;;;;;;11.17;44.47;99439.89;263435;1103;115103;-71
2021/04/24 20:17:09;;;;;;;32.43;14.15;;;;;;;11.10;44.37;99432.25;263423;1099;114941;-71
2021/04/24 20:22:12;;;;;;;22.70;12.83;;;;;;;11.05;45.09;99433.48;263459;1104;115325;-71
2021/04/24 20:27:15;;;;;;;30.85;14.45;;;;;;;10.96;45.31;99428.68;263466;1100;114822;-69
2021/04/24 20:32:21;;;;;;;32.65;14.90;;;;;;;10.87;45.54;99433.59;263497;1103;114923;-69
2021/04/24 20:37:25;;;;;;;26.10;13.63;;;;;;;10.80;46.32;99431.34;263294;1099;114908;-70
2021/04/24 20:42:29;;;;;;;33.20;15.45;;;;;;;10.71;46.44;99427.42;263438;1103;114973;-66
2021/04/24 20:47:38;;;;;;;33.75;16.30;;;;;;;10.65;46.40;99427.76;263418;1098;114980;-69
2021/04/24 20:52:42;;;;;;;35.38;16.53;;;;;;;10.62;46.28;99433.25;263482;1102;114994;-69
2021/04/24 20:57:50;;;;;;;39.78;17.15;;;;;;;10.59;46.07;99434.27;263426;1099;115031;-71
2021/04/24 21:02:54;;;;;;;42.30;18.03;;;;;;;10.57;46.18;99436.17;263393;1103;114860;-70
2021/04/24 21:07:57;;;;;;;30.80;16.20;;;;;;;10.59;46.56;99431.61;263454;1099;114817;-68
2021/04/24 21:13:00;;;;;;;32.60;16.75;;;;;;;10.57;47.32;99420.21;263514;1104;114974;-69
2021/04/24 21:18:06;;;;;;;31.78;16.15;;;;;;;10.55;47.62;99416.77;263386;1099;115423;-76
2021/04/24 21:23:11;;;;;;;30.65;16.70;;;;;;;10.50;47.96;99424.16;263412;1103;115249;-72
2021/04/24 21:28:17;;;;;;;38.90;20.10;;;;;;;10.47;47.81;99424.33;263462;1098;115044;-69
2021/04/24 21:33:19;;;;;;;39.75;19.88;;;;;;;10.45;47.84;99423.54;263465;1102;115293;-72
2021/04/24 21:38:25;;;;;;;43.05;19.30;;;;;;;10.41;48.18;99430.84;263478;1099;114853;-74
2021/04/24 21:43:31;;;;;;;42.08;19.90;;;;;;;10.38;48.43;99427.48;262582;1104;115408;-71
2021/04/24 21:48:36;;;;;;;38.75;19.30;;;;;;;10.34;48.59;99421.48;263190;1099;114779;-73
2021/04/24 21:53:42;;;;;;;45.93;21.10;;;;;;;10.32;49.03;99425.16;263460;1102;114914;-71
2021/04/24 21:58:51;;;;;;;43.93;20.05;;;;;;;10.29;48.94;99425.32;263494;1099;115330;-72
2021/04/24 22:03:54;;;;;;;41.33;20.85;;;;;;;10.25;49.28;99418.42;263474;1102;115113;-71
2021/04/24 22:09:01;;;;;;;45.18;21.13;;;;;;;10.19;49.69;99415.17;263289;1100;115042;-71
2021/04/24 22:14:04;;;;;;;43.43;20.78;;;;;;;10.15;49.72;99416.25;263514;1103;115207;-69
2021/04/24 22:19:07;;;;;;;43.45;22.05;;;;;;;10.13;50.09;99419.96;263271;1098;115059;-70
2021/04/24 22:24:11;;;;;;;48.78;23.85;;;;;;;10.08;50.25;99414.88;263489;1102;115090;-70
2021/04/24 22:29:14;;;;;;;41.25;23.50;;;;;;;10.06;50.23;99408.80;263453;1099;114724;-67
2021/04/24 22:34:20;;;;;;;48.45;25.75;;;;;;;10.04;50.12;99407.16;263493;1102;115124;-72
2021/04/24 22:39:23;;;;;;;44.48;22.33;;;;;;;10.03;50.22;99410.77;263449;1099;114861;-69
2021/04/24 22:44:27;;;;;;;45.53;22.73;;;;;;;10.03;50.08;99424.06;263389;1103;115049;-69
2021/04/24 22:49:30;;;;;;;46.18;21.38;;;;;;;10.03;49.68;99424.91;263448;1099;114791;-71
2021/04/24 22:54:33;;;;;;;41.83;21.20;;;;;;;10.03;49.88;99413.42;263290;1104;115484;-68
2021/04/24 22:59:36;;;;;;;46.05;22.28;;;;;;;10.00;49.67;99411.78;263489;1098;115164;-68
2021/04/24 23:04:38;;;;;;;43.78;22.43;;;;;;;10.00;49.68;99410.92;263478;1103;114941;-68
2021/04/24 23:09:41;;;;;;;47.35;22.90;;;;;;;9.99;49.64;99407.41;263438;1100;114935;-67
2021/04/24 23:14:47;;;;;;;47.10;22.75;;;;;;;10.00;49.41;99410.92;263032;1104;114518;-70
2021/04/24 23:19:51;;;;;;;47.93;22.15;;;;;;;9.98;49.69;99405.67;263467;1099;115000;-70
2021/04/24 23:24:54;;;;;;;42.85;21.33;;;;;;;9.98;49.74;99399.50;263473;1101;114680;-65
2021/04/24 23:29:57;;;;;;;46.40;21.05;;;;;;;9.95;49.69;99396.09;263225;1100;114608;-68
2021/04/24 23:35:04;;;;;;;42.70;20.33;;;;;;;9.92;49.56;99382.95;263054;1104;114629;-70
2021/04/24 23:40:09;;;;;;;44.20;21.35;;;;;;;9.90;49.68;99382.17;263005;1099;115218;-67
2021/04/24 23:45:13;;;;;;;41.28;19.30;;;;;;;9.88;49.64;99381.41;263476;1103;114955;-66
2021/04/24 23:50:19;;;;;;;38.75;19.53;;;;;;;9.87;49.94;99381.47;263489;1099;115394;-66
2021/04/24 23:55:22;;;;;;;35.28;18.73;;;;;;;9.85;49.81;99386.89;263515;1104;115008;-66
